createdAt,value
2018-05-16T00:01:44.318Z,8
2018-05-16T00:11:44.542Z,7
2018-05-16T00:21:39.695Z,7
2018-05-16T00:31:41.850Z,7
2018-05-16T00:41:40.650Z,7
2018-05-16T00:51:42.912Z,8
2018-05-16T01:01:44.428Z,8
2018-05-16T01:11:42.490Z,8
2018-05-16T01:21:39.629Z,6
2018-05-16T01:31:42.954Z,7
2018-05-16T01:41:40.624Z,7
2018-05-16T01:51:40.356Z,7
2018-05-16T02:01:38.728Z,8
2018-05-16T02:11:43.331Z,7
2018-05-16T02:21:38.575Z,9
2018-05-16T02:31:38.855Z,7
2018-05-16T02:41:38.637Z,8
2018-05-16T02:51:41.860Z,10
2018-05-16T03:01:39.701Z,13
2018-05-16T03:11:49.832Z,9
2018-05-16T03:21:39.596Z,10
2018-05-16T03:31:39.734Z,9
2018-05-16T03:41:39.658Z,10
2018-05-16T03:51:38.713Z,9
2018-05-16T04:01:40.695Z,10
2018-05-16T04:11:47.276Z,12
2018-05-16T04:21:39.683Z,10
2018-05-16T04:31:39.753Z,11
2018-05-16T04:41:38.687Z,13
2018-05-16T04:51:42.200Z,12
2018-05-16T05:01:39.650Z,12
2018-05-16T05:11:39.729Z,11
2018-05-16T05:21:44.626Z,11
2018-05-16T05:31:39.744Z,13
2018-05-16T05:41:52.536Z,11
2018-05-16T05:51:42.709Z,11
2018-05-16T06:01:38.694Z,12
2018-05-16T06:11:40.685Z,12
2018-05-16T06:21:46.932Z,11
2018-05-16T06:31:39.725Z,12
2018-05-16T06:41:42.412Z,11
2018-05-16T06:51:44.819Z,12
2018-05-16T07:01:38.909Z,13
2018-05-16T07:11:38.832Z,13
2018-05-16T07:21:39.187Z,16
2018-05-16T07:31:38.739Z,16
2018-05-16T07:41:38.739Z,17
2018-05-16T07:51:38.954Z,17
2018-05-16T08:01:38.768Z,18
2018-05-16T08:11:38.885Z,20
2018-05-16T08:21:38.704Z,18
2018-05-16T08:31:38.781Z,19
2018-05-16T08:41:38.641Z,19
2018-05-16T08:51:39.006Z,17
2018-05-16T09:01:39.833Z,17
2018-05-16T09:11:38.647Z,15
2018-05-16T09:21:38.711Z,15
2018-05-16T09:31:38.666Z,14
2018-05-16T09:41:41.008Z,15
2018-05-16T09:51:38.728Z,14
2018-05-16T10:01:38.785Z,15
2018-05-16T10:11:38.649Z,14
2018-05-16T10:21:38.858Z,13
2018-05-16T10:31:38.836Z,14
2018-05-16T10:41:39.779Z,13
2018-05-16T10:51:38.615Z,10
2018-05-16T11:01:38.658Z,11
2018-05-16T11:11:42.486Z,8
2018-05-16T11:21:38.723Z,8
2018-05-16T11:31:39.845Z,8
2018-05-16T11:41:39.794Z,7
2018-05-16T11:51:38.766Z,7
2018-05-16T12:01:39.895Z,7
2018-05-16T12:11:38.774Z,9
2018-05-16T12:21:38.915Z,9
2018-05-16T12:31:38.703Z,11
2018-05-16T12:41:38.771Z,12
2018-05-16T12:51:38.775Z,13
2018-05-16T13:01:38.847Z,15
2018-05-16T13:11:38.866Z,16
2018-05-16T13:21:40.316Z,17
2018-05-16T13:31:38.840Z,17
2018-05-16T13:41:53.079Z,20
2018-05-16T13:51:44.785Z,18
2018-05-16T14:01:38.750Z,20
2018-05-16T14:11:38.942Z,22
2018-05-16T14:21:38.879Z,20
2018-05-16T14:31:38.926Z,17
2018-05-16T14:41:40.751Z,11
2018-05-16T14:51:38.888Z,9
2018-05-16T15:01:39.188Z,11
2018-05-16T15:11:38.739Z,16
2018-05-16T15:21:38.895Z,10
2018-05-16T15:31:38.857Z,11
2018-05-16T15:41:38.861Z,10
2018-05-16T15:51:38.839Z,16
2018-05-16T16:01:38.942Z,4
2018-05-16T16:11:39.347Z,4
2018-05-16T16:21:38.943Z,8
2018-05-16T16:31:39.259Z,5
2018-05-16T16:41:39.559Z,19
2018-05-16T16:51:39.387Z,19
2018-05-16T17:01:39.581Z,14
2018-05-16T17:11:38.823Z,14
2018-05-16T17:21:38.887Z,12
2018-05-16T17:31:38.817Z,11
2018-05-16T17:41:38.682Z,7
2018-05-16T17:51:38.897Z,12
2018-05-16T18:01:38.730Z,13
2018-05-16T18:11:39.015Z,14
2018-05-16T18:21:38.772Z,13
2018-05-16T18:31:44.119Z,14
2018-05-16T18:41:40.124Z,10
2018-05-16T18:51:39.110Z,13
2018-05-16T19:01:39.386Z,11
2018-05-16T19:11:38.807Z,12
2018-05-16T19:21:38.805Z,13
2018-05-16T19:31:38.831Z,12
2018-05-16T19:41:39.642Z,20
2018-05-16T19:51:38.814Z,22
2018-05-16T20:01:38.807Z,23
2018-05-16T20:11:38.827Z,15
2018-05-16T20:21:38.881Z,22
2018-05-16T20:31:38.933Z,22
2018-05-16T20:41:38.805Z,19
2018-05-16T20:51:40.102Z,12
2018-05-16T21:01:39.477Z,14
2018-05-16T21:11:39.768Z,11
2018-05-16T21:21:51.128Z,13
2018-05-16T21:31:52.921Z,14
2018-05-16T21:41:40.864Z,22
2018-05-16T21:51:39.657Z,12
2018-05-16T22:01:39.885Z,18
2018-05-16T22:11:39.854Z,13
2018-05-16T22:21:38.985Z,14
2018-05-16T22:31:40.214Z,18
2018-05-16T22:41:42.164Z,22
2018-05-16T22:51:38.877Z,14
2018-05-16T23:01:39.247Z,13
2018-05-16T23:11:38.937Z,25
2018-05-16T23:21:39.196Z,18
2018-05-16T23:31:49.097Z,20
2018-05-16T23:41:50.365Z,15
2018-05-16T23:58:05.774Z,11
